createdAt,value
2019-05-10T00:01:10.590Z,3.85
2019-05-10T00:03:59.434Z,3.77
2019-05-10T00:06:48.572Z,3.55
2019-05-10T00:09:18.882Z,3.83
2019-05-10T00:12:15.318Z,3.72
2019-05-10T00:14:52.059Z,3.22
2019-05-10T00:17:23.902Z,3.27
2019-05-10T00:19:55.137Z,3.50
2019-05-10T00:22:26.452Z,3.17
2019-05-10T00:25:04.432Z,3.47
2019-05-10T00:27:30.820Z,3.58
2019-05-10T00:30:02.127Z,3.55
2019-05-10T00:32:34.817Z,3.20
2019-05-10T00:35:06.582Z,3.33
2019-05-10T00:37:37.867Z,3.45
2019-05-10T00:40:09.260Z,3.30
2019-05-10T00:42:40.669Z,2.98
2019-05-10T00:45:12.023Z,3.35
2019-05-10T00:47:43.299Z,3.17
2019-05-10T00:50:14.663Z,3.20
2019-05-10T00:52:45.967Z,3.45
2019-05-10T00:55:19.251Z,3.12
2019-05-10T00:57:50.433Z,2.90
2019-05-10T01:00:22.215Z,3.20
2019-05-10T01:02:53.422Z,3.58
2019-05-10T01:05:24.861Z,3.27
2019-05-10T01:07:56.221Z,3.25
2019-05-10T01:10:27.533Z,3.40
2019-05-10T01:12:58.903Z,3.10
2019-05-10T01:15:30.133Z,2.90
2019-05-10T01:18:01.510Z,3.00
2019-05-10T01:20:32.791Z,2.72
2019-05-10T01:23:04.046Z,2.87
2019-05-10T01:25:36.005Z,2.60
2019-05-10T01:28:07.393Z,2.75
2019-05-10T01:30:38.741Z,2.60
2019-05-10T01:33:10.057Z,2.65
2019-05-10T01:35:41.351Z,2.58
2019-05-10T01:38:12.561Z,2.47
2019-05-10T01:40:43.845Z,2.52
2019-05-10T01:43:15.078Z,2.95
2019-05-10T01:45:46.344Z,2.80
2019-05-10T01:48:17.584Z,2.60
2019-05-10T01:50:48.911Z,2.80
2019-05-10T01:53:20.212Z,2.72
2019-05-10T01:55:52.932Z,2.72
2019-05-10T01:58:25.593Z,2.70
2019-05-10T02:00:56.880Z,2.75
2019-05-10T02:03:28.198Z,2.98
2019-05-10T02:06:00.410Z,3.05
2019-05-10T02:08:31.676Z,2.90
2019-05-10T02:11:03.318Z,3.22
2019-05-10T02:13:34.630Z,3.12
2019-05-10T02:16:05.979Z,3.02
2019-05-10T02:18:37.357Z,3.12
2019-05-10T02:21:08.625Z,3.05
2019-05-10T02:23:39.851Z,3.10
2019-05-10T02:26:11.179Z,3.25
2019-05-10T02:28:42.484Z,2.80
2019-05-10T02:31:13.756Z,3.20
2019-05-10T02:33:45.074Z,3.20
2019-05-10T02:36:16.376Z,3.55
2019-05-10T02:38:47.747Z,3.30
2019-05-10T02:41:18.991Z,3.30
2019-05-10T02:43:50.279Z,3.60
2019-05-10T02:46:21.613Z,3.70
2019-05-10T02:48:53.040Z,4.08
2019-05-10T02:51:24.297Z,3.90
2019-05-10T02:53:55.493Z,3.80
2019-05-10T02:56:30.855Z,3.50
2019-05-10T02:59:00.213Z,3.80
2019-05-10T03:01:31.738Z,4.20
2019-05-10T03:04:03.104Z,4.37
2019-05-10T03:06:38.343Z,4.20
2019-05-10T03:09:09.898Z,4.22
2019-05-10T03:11:47.464Z,4.35
2019-05-10T03:14:19.826Z,4.50
2019-05-10T03:16:52.334Z,4.45
2019-05-10T03:19:24.003Z,4.37
2019-05-10T03:22:06.168Z,4.90
2019-05-10T03:24:38.506Z,4.85
2019-05-10T03:27:09.826Z,4.97
2019-05-10T03:29:41.267Z,5.00
2019-05-10T03:32:12.752Z,5.53
2019-05-10T03:34:44.001Z,5.65
2019-05-10T03:37:15.334Z,18.50
2019-05-10T03:39:46.555Z,7.80
2019-05-10T03:42:18.958Z,5.80
2019-05-10T03:44:50.177Z,6.05
2019-05-10T03:47:21.404Z,6.47
2019-05-10T03:49:52.672Z,6.45
2019-05-10T03:52:23.909Z,6.70
2019-05-10T03:54:55.185Z,6.78
2019-05-10T03:57:26.442Z,6.85
2019-05-10T03:59:57.792Z,7.12
2019-05-10T04:02:29.057Z,7.12
2019-05-10T04:05:00.360Z,7.33
2019-05-10T04:07:32.699Z,7.33
2019-05-10T04:10:03.960Z,7.70
2019-05-10T04:12:35.690Z,7.80
2019-05-10T04:15:08.227Z,7.28
2019-05-10T04:17:39.504Z,8.83
2019-05-10T04:20:10.940Z,9.43
2019-05-10T04:22:42.232Z,9.53
2019-05-10T04:25:13.596Z,10.00
2019-05-10T04:27:44.934Z,10.15
2019-05-10T04:30:16.574Z,10.72
2019-05-10T04:32:47.845Z,11.75
2019-05-10T04:35:19.175Z,11.45
2019-05-10T04:37:50.661Z,12.23
2019-05-10T04:40:21.992Z,12.13
2019-05-10T04:42:53.279Z,12.82
2019-05-10T04:45:24.715Z,11.55
2019-05-10T04:47:55.999Z,12.25
2019-05-10T04:50:27.258Z,13.32
2019-05-10T04:52:58.518Z,12.58
2019-05-10T04:55:29.853Z,12.43
2019-05-10T04:58:01.164Z,12.65
2019-05-10T05:00:32.462Z,12.55
2019-05-10T05:03:05.370Z,13.62
2019-05-10T05:05:36.672Z,13.38
2019-05-10T05:08:07.938Z,13.55
2019-05-10T05:10:39.286Z,14.40
2019-05-10T05:13:10.549Z,13.68
2019-05-10T05:15:41.857Z,14.10
2019-05-10T05:18:13.219Z,13.72
2019-05-10T05:20:44.511Z,13.53
2019-05-10T05:23:15.804Z,15.18
2019-05-10T05:25:47.071Z,14.68
2019-05-10T05:28:23.040Z,14.93
2019-05-10T05:30:51.343Z,14.95
2019-05-10T05:33:22.676Z,14.65
2019-05-10T05:35:53.975Z,15.63
2019-05-10T05:38:25.279Z,15.40
2019-05-10T05:40:56.577Z,16.00
2019-05-10T05:43:27.893Z,15.85
2019-05-10T05:45:59.125Z,15.88
2019-05-10T05:48:40.115Z,15.03
2019-05-10T05:51:03.424Z,16.15
2019-05-10T05:53:35.867Z,14.65
2019-05-10T05:56:12.635Z,16.00
2019-05-10T05:58:44.782Z,16.65
2019-05-10T06:01:24.935Z,15.60
2019-05-10T06:03:46.825Z,15.43
2019-05-10T06:06:21.968Z,14.98
2019-05-10T06:08:54.590Z,15.90
2019-05-10T06:11:29.654Z,16.10
2019-05-10T06:14:03.711Z,16.15
2019-05-10T06:16:31.263Z,16.07
2019-05-10T06:19:02.561Z,15.13
2019-05-10T06:21:33.847Z,15.93
2019-05-10T06:24:07.558Z,15.32
2019-05-10T06:26:38.059Z,15.72
2019-05-10T06:29:16.139Z,14.78
2019-05-10T06:31:42.297Z,15.32
2019-05-10T06:34:13.618Z,15.35
2019-05-10T06:36:45.087Z,14.95
2019-05-10T06:39:16.377Z,14.83
2019-05-10T06:41:50.243Z,15.45
2019-05-10T06:44:24.893Z,14.03
2019-05-10T06:46:53.885Z,14.35
2019-05-10T06:49:25.175Z,13.93
2019-05-10T06:51:56.482Z,13.70
2019-05-10T06:54:27.785Z,14.33
2019-05-10T06:56:59.192Z,13.28
2019-05-10T06:59:30.570Z,13.30
2019-05-10T07:02:01.889Z,13.72
2019-05-10T07:04:37.922Z,14.35
2019-05-10T07:07:09.704Z,13.00
2019-05-10T07:10:01.418Z,13.65
2019-05-10T07:12:15.321Z,13.65
2019-05-10T07:14:46.410Z,12.60
2019-05-10T07:17:18.033Z,12.35
2019-05-10T07:19:53.578Z,13.48
2019-05-10T07:22:27.114Z,11.75
2019-05-10T07:24:57.154Z,11.03
2019-05-10T07:27:29.154Z,10.08
2019-05-10T07:30:00.470Z,10.88
2019-05-10T07:32:31.735Z,10.60
2019-05-10T07:35:03.193Z,11.30
2019-05-10T07:37:34.501Z,11.20
2019-05-10T07:40:06.391Z,11.18
2019-05-10T07:42:39.649Z,11.60
2019-05-10T07:45:10.910Z,10.32
2019-05-10T07:47:42.295Z,10.65
2019-05-10T07:50:13.678Z,10.78
2019-05-10T07:52:45.668Z,11.18
2019-05-10T07:55:28.086Z,11.08
2019-05-10T07:57:50.325Z,10.35
2019-05-10T08:00:25.326Z,10.38
2019-05-10T08:03:06.390Z,10.23
2019-05-10T08:05:29.456Z,11.03
2019-05-10T08:08:00.947Z,11.28
2019-05-10T08:10:32.266Z,10.95
2019-05-10T08:13:03.775Z,10.50
2019-05-10T08:15:35.301Z,12.90
2019-05-10T08:18:09.613Z,11.57
2019-05-10T08:20:49.335Z,10.38
2019-05-10T08:23:17.850Z,10.48
2019-05-10T08:25:47.195Z,11.33
2019-05-10T08:28:18.636Z,11.45
2019-05-10T08:30:53.467Z,11.00
2019-05-10T08:33:23.020Z,12.30
2019-05-10T08:36:00.511Z,11.50
2019-05-10T08:38:28.203Z,10.98
2019-05-10T08:40:59.508Z,9.95
2019-05-10T08:43:38.872Z,9.75
2019-05-10T08:46:03.799Z,8.58
2019-05-10T08:48:38.203Z,8.20
2019-05-10T08:51:08.066Z,7.22
2019-05-10T08:53:41.891Z,7.08
2019-05-10T08:56:13.693Z,7.37
2019-05-10T08:58:45.227Z,6.90
2019-05-10T09:01:26.793Z,7.20
2019-05-10T09:03:55.611Z,7.22
2019-05-10T09:06:22.599Z,6.45
2019-05-10T09:09:01.831Z,6.47
2019-05-10T09:11:26.904Z,5.78
2019-05-10T09:13:58.368Z,6.20
2019-05-10T09:16:39.355Z,6.08
2019-05-10T09:19:02.744Z,5.80
2019-05-10T09:21:34.515Z,6.20
2019-05-10T09:24:06.576Z,6.50
2019-05-10T09:26:38.077Z,6.47
2019-05-10T09:29:09.349Z,6.70
2019-05-10T09:31:45.894Z,6.90
2019-05-10T09:34:13.539Z,6.00
2019-05-10T09:36:46.970Z,6.30
2019-05-10T09:39:21.771Z,7.10
2019-05-10T09:41:52.758Z,6.95
2019-05-10T09:44:23.767Z,5.90
2019-05-10T09:46:55.060Z,6.03
2019-05-10T09:49:27.444Z,6.05
2019-05-10T09:51:58.727Z,6.37
2019-05-10T09:54:33.544Z,7.85
2019-05-10T09:57:03.077Z,5.72
2019-05-10T09:59:34.328Z,5.12
2019-05-10T10:02:14.660Z,5.22
2019-05-10T10:04:38.688Z,6.10
2019-05-10T10:07:09.981Z,5.90
2019-05-10T10:09:44.667Z,4.40
2019-05-10T10:12:14.316Z,5.55
2019-05-10T10:14:47.297Z,5.33
2019-05-10T10:17:20.594Z,5.65
2019-05-10T10:19:51.724Z,5.70
2019-05-10T10:22:22.990Z,5.90
2019-05-10T10:24:56.833Z,6.72
2019-05-10T10:27:34.225Z,6.12
2019-05-10T10:30:00.165Z,6.33
2019-05-10T10:32:34.821Z,6.17
2019-05-10T10:35:04.597Z,6.42
2019-05-10T10:37:37.955Z,6.03
2019-05-10T10:40:09.183Z,7.08
2019-05-10T10:42:40.519Z,6.50
2019-05-10T10:45:12.016Z,5.70
2019-05-10T10:47:43.584Z,5.65
2019-05-10T10:50:17.208Z,7.17
2019-05-10T10:52:48.736Z,5.90
2019-05-10T10:55:19.998Z,6.17
2019-05-10T10:57:51.313Z,5.47
2019-05-10T11:00:33.012Z,5.62
2019-05-10T11:03:05.770Z,5.08
2019-05-10T11:05:37.080Z,5.33
2019-05-10T11:08:10.994Z,5.03
2019-05-10T11:10:43.019Z,4.72
2019-05-10T11:13:23.729Z,5.22
2019-05-10T11:15:48.419Z,3.92
2019-05-10T11:18:21.648Z,4.00
2019-05-10T11:20:54.075Z,5.12
2019-05-10T11:23:34.211Z,4.62
2019-05-10T11:25:58.514Z,4.53
2019-05-10T11:28:38.481Z,4.50
2019-05-10T11:31:02.962Z,3.95
2019-05-10T11:33:34.179Z,4.70
2019-05-10T11:36:08.681Z,5.25
2019-05-10T11:38:38.466Z,6.37
2019-05-10T11:41:13.617Z,5.30
2019-05-10T11:43:42.724Z,5.58
2019-05-10T11:46:14.052Z,5.40
2019-05-10T11:48:45.291Z,5.28
2019-05-10T11:51:17.606Z,5.45
2019-05-10T11:53:55.498Z,5.90
2019-05-10T11:56:27.376Z,4.85
2019-05-10T11:58:56.046Z,4.30
2019-05-10T12:01:27.295Z,5.03
2019-05-10T12:03:58.662Z,5.67
2019-05-10T12:06:31.987Z,6.20
2019-05-10T12:09:04.736Z,7.20
2019-05-10T12:11:43.822Z,6.60
2019-05-10T12:14:13.601Z,8.35
2019-05-10T12:16:42.348Z,6.75
2019-05-10T12:19:19.943Z,5.78
2019-05-10T12:21:46.675Z,5.53
2019-05-10T12:24:39.027Z,6.10
2019-05-10T12:27:14.424Z,5.75
2019-05-10T12:29:24.070Z,6.47
2019-05-10T12:31:56.975Z,6.78
2019-05-10T12:34:30.979Z,6.83
2019-05-10T12:37:03.777Z,5.85
2019-05-10T12:39:34.519Z,6.37
2019-05-10T12:42:05.815Z,5.55
2019-05-10T12:44:38.889Z,6.17
2019-05-10T12:47:11.392Z,5.75
2019-05-10T12:49:42.708Z,5.90
2019-05-10T12:52:16.081Z,5.80
2019-05-10T12:54:46.968Z,6.15
2019-05-10T12:57:18.259Z,5.55
2019-05-10T12:59:49.585Z,5.10
2019-05-10T13:02:20.913Z,7.22
2019-05-10T13:04:52.872Z,6.90
2019-05-10T13:07:25.211Z,5.40
2019-05-10T13:10:03.864Z,5.80
2019-05-10T13:12:29.516Z,7.03
2019-05-10T13:15:00.795Z,5.58
2019-05-10T13:17:32.099Z,5.67
2019-05-10T13:20:03.516Z,5.50
2019-05-10T13:22:37.783Z,5.58
2019-05-10T13:25:07.879Z,5.30
2019-05-10T13:27:40.298Z,4.72
2019-05-10T13:30:12.752Z,4.60
2019-05-10T13:32:44.078Z,5.30
2019-05-10T13:35:16.387Z,5.83
2019-05-10T13:37:47.794Z,5.85
2019-05-10T13:40:19.257Z,5.20
2019-05-10T13:42:50.532Z,4.72
2019-05-10T13:45:21.994Z,3.90
2019-05-10T13:47:53.286Z,3.77
2019-05-10T13:50:24.609Z,4.10
2019-05-10T13:52:55.961Z,3.75
2019-05-10T13:55:27.261Z,3.17
2019-05-10T13:57:58.581Z,2.85
2019-05-10T14:00:34.407Z,3.47
2019-05-10T14:03:04.832Z,3.40
2019-05-10T14:05:39.785Z,3.40
2019-05-10T14:08:09.627Z,3.08
2019-05-10T14:10:40.926Z,2.52
2019-05-10T14:13:16.224Z,2.80
2019-05-10T14:15:45.156Z,3.80
2019-05-10T14:18:16.404Z,3.40
2019-05-10T14:20:47.743Z,2.77
2019-05-10T14:23:18.995Z,2.62
2019-05-10T14:25:50.301Z,2.87
2019-05-10T14:28:22.579Z,2.80
2019-05-10T14:30:57.414Z,2.50
2019-05-10T14:33:26.837Z,2.50
2019-05-10T14:36:00.887Z,2.72
2019-05-10T14:38:31.130Z,2.50
2019-05-10T14:41:10.209Z,3.15
2019-05-10T14:43:35.494Z,2.72
2019-05-10T14:46:13.558Z,2.58
2019-05-10T14:48:39.801Z,2.37
2019-05-10T14:51:13.615Z,3.20
2019-05-10T14:53:44.110Z,2.72
2019-05-10T14:56:15.461Z,3.98
2019-05-10T14:58:46.773Z,3.42
2019-05-10T15:01:18.180Z,3.20
2019-05-10T15:03:49.633Z,3.10
2019-05-10T15:06:20.871Z,3.12
2019-05-10T15:08:52.311Z,3.05
2019-05-10T15:11:26.529Z,2.35
2019-05-10T15:13:57.261Z,2.12
2019-05-10T15:16:30.862Z,2.45
2019-05-10T15:19:02.405Z,2.65
2019-05-10T15:21:34.632Z,2.45
2019-05-10T15:24:06.256Z,2.80
2019-05-10T15:26:43.735Z,2.27
2019-05-10T15:29:14.870Z,2.55
2019-05-10T15:31:43.549Z,2.50
2019-05-10T15:34:14.853Z,2.85
2019-05-10T15:36:46.216Z,3.00
2019-05-10T15:39:17.519Z,2.87
2019-05-10T15:41:53.506Z,3.50
2019-05-10T15:44:30.155Z,2.72
2019-05-10T15:46:55.809Z,3.17
2019-05-10T15:49:27.118Z,3.72
2019-05-10T15:52:16.291Z,3.52
2019-05-10T15:54:31.471Z,3.40
2019-05-10T15:57:02.810Z,3.65
2019-05-10T15:59:34.125Z,3.52
2019-05-10T16:02:05.640Z,4.62
2019-05-10T16:04:36.926Z,4.65
2019-05-10T16:07:09.256Z,4.15
2019-05-10T16:09:41.540Z,3.85
2019-05-10T16:12:13.127Z,3.47
2019-05-10T16:14:45.756Z,3.95
2019-05-10T16:17:23.351Z,4.58
2019-05-10T16:19:59.707Z,3.70
2019-05-10T16:22:30.335Z,4.22
2019-05-10T16:25:01.355Z,3.87
2019-05-10T16:27:33.858Z,3.87
2019-05-10T16:30:05.106Z,3.60
2019-05-10T16:32:36.456Z,4.28
2019-05-10T16:35:12.793Z,4.17
2019-05-10T16:37:40.811Z,3.95
2019-05-10T16:40:13.609Z,3.35
2019-05-10T16:42:47.873Z,3.40
2019-05-10T16:45:19.429Z,3.80
2019-05-10T16:47:50.775Z,3.75
2019-05-10T16:50:26.117Z,3.80
2019-05-10T16:52:59.443Z,3.52
2019-05-10T16:55:28.087Z,3.33
2019-05-10T16:57:59.356Z,3.37
2019-05-10T17:00:30.640Z,3.40
2019-05-10T17:03:01.904Z,3.12
2019-05-10T17:05:33.309Z,3.10
2019-05-10T17:08:04.564Z,3.33
2019-05-10T17:10:35.980Z,7.50
2019-05-10T17:13:07.408Z,3.67
2019-05-10T17:15:41.693Z,3.25
2019-05-10T17:18:17.802Z,3.70
2019-05-10T17:20:50.856Z,3.10
2019-05-10T17:23:18.948Z,3.00
2019-05-10T17:25:50.226Z,2.67
2019-05-10T17:28:21.561Z,3.30
2019-05-10T17:30:52.798Z,9.63
2019-05-10T17:33:24.210Z,3.65
2019-05-10T17:36:07.572Z,2.90
2019-05-10T17:38:31.619Z,3.70
2019-05-10T17:41:02.550Z,3.10
2019-05-10T17:43:33.891Z,3.15
2019-05-10T17:46:05.377Z,2.77
2019-05-10T17:48:40.869Z,3.10
2019-05-10T17:51:09.754Z,3.40
2019-05-10T17:53:41.009Z,3.75
2019-05-10T17:56:12.470Z,3.45
2019-05-10T17:58:43.854Z,3.87
2019-05-10T18:01:15.177Z,4.12
2019-05-10T18:03:46.491Z,3.80
2019-05-10T18:06:23.953Z,3.70
2019-05-10T18:08:50.864Z,6.42
2019-05-10T18:11:22.224Z,4.25
2019-05-10T18:13:53.649Z,3.87
2019-05-10T18:16:25.629Z,3.50
2019-05-10T18:18:56.968Z,3.90
2019-05-10T18:21:28.378Z,3.90
2019-05-10T18:23:59.860Z,4.28
2019-05-10T18:26:34.096Z,3.75
2019-05-10T18:29:04.172Z,3.70
2019-05-10T18:31:35.533Z,3.72
2019-05-10T18:34:06.855Z,6.72
2019-05-10T18:36:50.936Z,4.60
2019-05-10T18:39:15.535Z,4.05
2019-05-10T18:41:46.504Z,4.58
2019-05-10T18:44:17.158Z,4.50
2019-05-10T18:46:48.408Z,4.42
2019-05-10T18:49:19.727Z,4.25
2019-05-10T18:51:50.975Z,4.20
2019-05-10T18:54:22.314Z,4.22
2019-05-10T18:56:53.625Z,4.05
2019-05-10T18:59:24.897Z,4.50
2019-05-10T19:01:56.153Z,4.33
2019-05-10T19:04:27.473Z,4.08
2019-05-10T19:07:09.244Z,4.10
2019-05-10T19:09:32.017Z,5.55
2019-05-10T19:12:03.530Z,4.53
2019-05-10T19:14:35.139Z,5.28
2019-05-10T19:17:09.429Z,5.83
2019-05-10T19:19:42.163Z,5.90
2019-05-10T19:22:12.550Z,6.97
2019-05-10T19:24:43.955Z,6.37
2019-05-10T19:27:15.315Z,7.28
2019-05-10T19:29:48.024Z,6.87
2019-05-10T19:32:20.296Z,6.83
2019-05-10T19:34:57.325Z,6.92
2019-05-10T19:37:31.368Z,6.33
2019-05-10T19:39:57.851Z,6.42
2019-05-10T19:42:31.611Z,5.72
2019-05-10T19:45:02.177Z,6.42
2019-05-10T19:47:34.772Z,6.87
2019-05-10T19:50:06.441Z,6.37
2019-05-10T19:52:37.748Z,6.62
2019-05-10T19:55:13.203Z,6.78
2019-05-10T19:57:42.499Z,6.35
2019-05-10T20:00:13.788Z,6.10
2019-05-10T20:02:45.087Z,6.17
2019-05-10T20:05:16.424Z,6.58
2019-05-10T20:07:47.834Z,6.33
2019-05-10T20:10:19.193Z,6.33
2019-05-10T20:12:50.509Z,6.62
2019-05-10T20:15:21.805Z,6.95
2019-05-10T20:17:53.152Z,7.05
2019-05-10T20:20:24.502Z,6.58
2019-05-10T20:22:55.877Z,6.95
2019-05-10T20:25:27.303Z,6.90
2019-05-10T20:27:58.800Z,6.75
2019-05-10T20:30:30.241Z,7.42
2019-05-10T20:33:01.578Z,7.22
2019-05-10T20:35:33.015Z,6.47
2019-05-10T20:38:04.480Z,6.50
2019-05-10T20:40:37.297Z,7.95
2019-05-10T20:43:08.789Z,7.85
2019-05-10T20:45:40.091Z,7.45
2019-05-10T20:48:11.334Z,7.25
2019-05-10T20:50:42.746Z,6.75
2019-05-10T20:53:14.089Z,7.33
2019-05-10T20:55:45.413Z,7.25
2019-05-10T20:58:16.787Z,7.05
2019-05-10T21:00:48.169Z,6.83
2019-05-10T21:03:19.489Z,7.67
2019-05-10T21:05:50.773Z,7.75
2019-05-10T21:08:22.044Z,7.58
2019-05-10T21:10:53.393Z,7.85
2019-05-10T21:13:24.769Z,8.05
2019-05-10T21:15:56.057Z,7.62
2019-05-10T21:18:27.492Z,7.83
2019-05-10T21:20:58.769Z,6.72
2019-05-10T21:23:30.036Z,7.53
2019-05-10T21:26:01.350Z,7.20
2019-05-10T21:28:33.018Z,7.35
2019-05-10T21:31:04.365Z,8.28
2019-05-10T21:33:35.684Z,7.78
2019-05-10T21:36:06.994Z,8.05
2019-05-10T21:38:41.476Z,8.08
2019-05-10T21:41:11.313Z,7.92
2019-05-10T21:43:42.567Z,7.75
2019-05-10T21:46:13.911Z,7.45
2019-05-10T21:48:45.182Z,7.30
2019-05-10T21:51:16.464Z,7.42
2019-05-10T21:53:47.730Z,7.58
2019-05-10T21:56:19.033Z,7.17
2019-05-10T21:58:50.332Z,7.70
2019-05-10T22:01:21.695Z,7.33
2019-05-10T22:03:52.977Z,6.17
2019-05-10T22:06:24.252Z,6.97
2019-05-10T22:08:55.531Z,7.08
2019-05-10T22:11:26.840Z,6.92
2019-05-10T22:13:59.238Z,6.85
2019-05-10T22:16:30.548Z,6.12
2019-05-10T22:19:03.117Z,6.40
2019-05-10T22:21:34.420Z,6.35
2019-05-10T22:24:05.844Z,7.70
2019-05-10T22:26:37.186Z,7.28
2019-05-10T22:29:08.438Z,8.45
2019-05-10T22:31:39.759Z,8.03
2019-05-10T22:34:12.016Z,8.33
2019-05-10T22:36:43.378Z,7.50
2019-05-10T22:39:14.678Z,7.87
2019-05-10T22:41:45.908Z,7.22
2019-05-10T22:44:17.227Z,7.67
2019-05-10T22:46:48.454Z,8.08
2019-05-10T22:49:19.752Z,8.38
2019-05-10T22:51:51.144Z,8.50
2019-05-10T22:54:22.449Z,9.10
2019-05-10T22:56:53.715Z,8.75
2019-05-10T22:59:25.080Z,9.10
2019-05-10T23:01:56.444Z,9.40
2019-05-10T23:04:27.696Z,9.70
2019-05-10T23:06:58.930Z,9.98
2019-05-10T23:09:30.229Z,8.65
2019-05-10T23:12:01.540Z,8.40
2019-05-10T23:14:32.771Z,8.18
2019-05-10T23:17:04.130Z,8.40
2019-05-10T23:19:35.357Z,7.55
2019-05-10T23:22:06.628Z,7.67
2019-05-10T23:24:39.323Z,7.80
2019-05-10T23:27:10.630Z,8.05
2019-05-10T23:29:41.984Z,7.67
2019-05-10T23:32:13.254Z,9.00
2019-05-10T23:34:44.566Z,7.20
2019-05-10T23:37:15.858Z,7.30
2019-05-10T23:39:47.100Z,7.65
2019-05-10T23:42:18.383Z,7.92
2019-05-10T23:44:49.706Z,7.78
2019-05-10T23:47:20.974Z,8.08
2019-05-10T23:49:52.262Z,8.63
2019-05-10T23:52:23.634Z,8.45
2019-05-10T23:54:54.866Z,9.78
2019-05-10T23:57:26.107Z,9.33
2019-05-10T23:59:57.465Z,9.08
